EDDS/STR METAR and TAF weather

Enter ICAO airport designator
Station Type Date Time Source
EDDS METAR 2020/01/18 04:20 UTC NOAA

EDDS 180420Z VRB02KT 9999 FEW015 04/03 Q1025


Station Type Date Time Source
EDDS Decoded METAR 2020/01/18 04:20 UTC NOAA

Stuttgart-Echterdingen, Germany (EDDS) 48-41N 009-13E 391M
Jan 17, 2020 - 11:20 PM EST / 2020.01.18 0420 UTC
Wind: Variable at 2 MPH (2 KT):0
Visibility: greater than 7 mile(s):0
Sky conditions: mostly clear
Temperature: 39 F (4 C)
Dew Point: 37 F (3 C)
Relative Humidity: 93%
Pressure (altimeter): 30.27 in. Hg (1025 hPa)
ob: EDDS 180420Z VRB02KT 9999 FEW015 04/03 Q1025
cycle: 4

Station Type Date Time Source
EDDS TAF 2020/01/17 18:27 UTC NOAA

TAF TAF EDDS 171700Z 1718/1818 23006KT 9999 SCT030 BKN040
TEMPO 1718/1724 RA BKN014
TEMPO 1809/1815 23015G25KT 4500 SHRA BKN020TCU PROB30
TEMPO 1815/1818 2000 SHSNRA BKN008 SCT012CB

Example: see airport list